sensor_id;sensor_type;location;lat;lon;timestamp;temperature;humidity
76239;SHT30;65043;48.392;-4.472;2023-08-12T00:01:35;21.16;76.07
76239;SHT30;65043;48.392;-4.472;2023-08-12T00:04:00;21.18;75.42
76239;SHT30;65043;48.392;-4.472;2023-08-12T00:06:26;21.21;75.24
76239;SHT30;65043;48.392;-4.472;2023-08-12T00:08:51;21.18;75.16
76239;SHT30;65043;48.392;-4.472;2023-08-12T00:11:17;21.15;75.37
76239;SHT30;65043;48.392;-4.472;2023-08-12T00:13:42;21.15;75.36
76239;SHT30;65043;48.392;-4.472;2023-08-12T00:16:08;21.16;75.27
76239;SHT30;65043;48.392;-4.472;2023-08-12T00:18:36;21.11;75.45
76239;SHT30;65043;48.392;-4.472;2023-08-12T00:21:06;21.06;75.67
76239;SHT30;65043;48.392;-4.472;2023-08-12T00:23:32;21.06;75.83
76239;SHT30;65043;48.392;-4.472;2023-08-12T00:25:58;21.04;75.88
76239;SHT30;65043;48.392;-4.472;2023-08-12T00:28:29;20.99;76.01
76239;SHT30;65043;48.392;-4.472;2023-08-12T00:30:57;20.98;75.98
76239;SHT30;65043;48.392;-4.472;2023-08-12T00:33:22;20.98;75.89
76239;SHT30;65043;48.392;-4.472;2023-08-12T00:35:48;20.99;75.91
76239;SHT30;65043;48.392;-4.472;2023-08-12T00:38:13;21.01;75.91
76239;SHT30;65043;48.392;-4.472;2023-08-12T00:40:39;20.96;75.93
76239;SHT30;65043;48.392;-4.472;2023-08-12T00:43:04;20.94;75.94
76239;SHT30;65043;48.392;-4.472;2023-08-12T00:45:33;20.95;75.92
76239;SHT30;65043;48.392;-4.472;2023-08-12T00:47:59;20.95;76.11
76239;SHT30;65043;48.392;-4.472;2023-08-12T00:50:25;20.94;76.11
76239;SHT30;65043;48.392;-4.472;2023-08-12T00:52:51;20.92;76.05
76239;SHT30;65043;48.392;-4.472;2023-08-12T00:55:17;20.94;76.27
76239;SHT30;65043;48.392;-4.472;2023-08-12T00:57:43;20.95;76.26
76239;SHT30;65043;48.392;-4.472;2023-08-12T01:00:12;20.94;76.23
76239;SHT30;65043;48.392;-4.472;2023-08-12T01:02:38;20.98;76.16
76239;SHT30;65043;48.392;-4.472;2023-08-12T01:05:07;20.94;76.15
76239;SHT30;65043;48.392;-4.472;2023-08-12T01:07:35;20.96;76.09
76239;SHT30;65043;48.392;-4.472;2023-08-12T01:10:01;20.96;76.06
76239;SHT30;65043;48.392;-4.472;2023-08-12T01:12:30;20.98;75.92
76239;SHT30;65043;48.392;-4.472;2023-08-12T01:15:29;20.91;75.99
76239;SHT30;65043;48.392;-4.472;2023-08-12T01:18:00;20.91;76.07
76239;SHT30;65043;48.392;-4.472;2023-08-12T01:20:25;20.90;76.03
76239;SHT30;65043;48.392;-4.472;2023-08-12T01:22:58;20.91;76.08
76239;SHT30;65043;48.392;-4.472;2023-08-12T01:25:26;20.91;76.12
76239;SHT30;65043;48.392;-4.472;2023-08-12T01:27:54;20.92;76.07
76239;SHT30;65043;48.392;-4.472;2023-08-12T01:30:24;20.92;76.19
76239;SHT30;65043;48.392;-4.472;2023-08-12T01:35:36;20.92;76.06
76239;SHT30;65043;48.392;-4.472;2023-08-12T01:38:08;20.85;76.25
76239;SHT30;65043;48.392;-4.472;2023-08-12T01:40:35;20.83;76.57
76239;SHT30;65043;48.392;-4.472;2023-08-12T01:43:04;20.81;76.75
76239;SHT30;65043;48.392;-4.472;2023-08-12T01:45:32;20.81;76.64
76239;SHT30;65043;48.392;-4.472;2023-08-12T01:47:57;20.83;76.63
76239;SHT30;65043;48.392;-4.472;2023-08-12T01:50:23;20.78;76.52
76239;SHT30;65043;48.392;-4.472;2023-08-12T01:52:49;20.78;76.71
76239;SHT30;65043;48.392;-4.472;2023-08-12T01:55:17;20.81;76.74
76239;SHT30;65043;48.392;-4.472;2023-08-12T01:57:43;20.81;76.30
76239;SHT30;65043;48.392;-4.472;2023-08-12T02:00:11;20.81;75.95
76239;SHT30;65043;48.392;-4.472;2023-08-12T02:02:37;20.81;75.79
76239;SHT30;65043;48.392;-4.472;2023-08-12T02:05:02;20.80;75.75
76239;SHT30;65043;48.392;-4.472;2023-08-12T02:07:30;20.81;75.81
76239;SHT30;65043;48.392;-4.472;2023-08-12T02:09:58;20.80;75.65
76239;SHT30;65043;48.392;-4.472;2023-08-12T02:12:23;20.77;75.73
76239;SHT30;65043;48.392;-4.472;2023-08-12T02:14:49;20.74;75.72
76239;SHT30;65043;48.392;-4.472;2023-08-12T02:17:14;20.75;75.71
76239;SHT30;65043;48.392;-4.472;2023-08-12T02:19:40;20.73;75.87
76239;SHT30;65043;48.392;-4.472;2023-08-12T02:22:05;20.73;75.96
76239;SHT30;65043;48.392;-4.472;2023-08-12T02:24:31;20.71;76.20
76239;SHT30;65043;48.392;-4.472;2023-08-12T02:26:56;20.73;76.40
76239;SHT30;65043;48.392;-4.472;2023-08-12T02:29:27;20.71;76.42
76239;SHT30;65043;48.392;-4.472;2023-08-12T02:31:52;20.71;76.56
76239;SHT30;65043;48.392;-4.472;2023-08-12T02:34:20;20.73;76.69
76239;SHT30;65043;48.392;-4.472;2023-08-12T02:36:45;20.73;76.76
76239;SHT30;65043;48.392;-4.472;2023-08-12T02:39:14;20.74;76.67
76239;SHT30;65043;48.392;-4.472;2023-08-12T02:41:44;20.74;76.65
76239;SHT30;65043;48.392;-4.472;2023-08-12T02:44:12;20.70;76.69
76239;SHT30;65043;48.392;-4.472;2023-08-12T02:46:45;20.74;76.69
76239;SHT30;65043;48.392;-4.472;2023-08-12T02:49:10;20.73;76.68
76239;SHT30;65043;48.392;-4.472;2023-08-12T02:51:36;20.68;76.74
76239;SHT30;65043;48.392;-4.472;2023-08-12T02:54:01;20.74;76.65
76239;SHT30;65043;48.392;-4.472;2023-08-12T02:56:29;20.67;76.62
76239;SHT30;65043;48.392;-4.472;2023-08-12T02:58:57;20.65;76.78
76239;SHT30;65043;48.392;-4.472;2023-08-12T03:01:32;20.60;76.81
76239;SHT30;65043;48.392;-4.472;2023-08-12T03:03:57;20.64;76.77
76239;SHT30;65043;48.392;-4.472;2023-08-12T03:06:27;20.68;76.67
76239;SHT30;65043;48.392;-4.472;2023-08-12T03:08:56;20.65;76.78
76239;SHT30;65043;48.392;-4.472;2023-08-12T03:11:24;20.64;76.84
76239;SHT30;65043;48.392;-4.472;2023-08-12T03:13:49;20.63;76.94
76239;SHT30;65043;48.392;-4.472;2023-08-12T03:16:17;20.60;76.99
76239;SHT30;65043;48.392;-4.472;2023-08-12T03:18:45;20.63;76.84
76239;SHT30;65043;48.392;-4.472;2023-08-12T03:21:11;20.64;76.82
76239;SHT30;65043;48.392;-4.472;2023-08-12T03:23:37;20.63;76.85
76239;SHT30;65043;48.392;-4.472;2023-08-12T03:26:05;20.65;76.67
76239;SHT30;65043;48.392;-4.472;2023-08-12T03:28:33;20.61;76.85
76239;SHT30;65043;48.392;-4.472;2023-08-12T03:30:58;20.64;76.76
76239;SHT30;65043;48.392;-4.472;2023-08-12T03:33:24;20.63;76.70
76239;SHT30;65043;48.392;-4.472;2023-08-12T03:35:54;20.61;76.74
76239;SHT30;65043;48.392;-4.472;2023-08-12T03:38:21;20.60;76.91
76239;SHT30;65043;48.392;-4.472;2023-08-12T03:40:47;20.58;76.90
76239;SHT30;65043;48.392;-4.472;2023-08-12T03:43:15;20.60;76.95
76239;SHT30;65043;48.392;-4.472;2023-08-12T03:45:48;20.58;76.98
76239;SHT30;65043;48.392;-4.472;2023-08-12T03:48:13;20.57;77.08
76239;SHT30;65043;48.392;-4.472;2023-08-12T03:50:41;20.60;76.93
76239;SHT30;65043;48.392;-4.472;2023-08-12T03:53:09;20.60;76.95
76239;SHT30;65043;48.392;-4.472;2023-08-12T03:55:37;20.58;77.05
76239;SHT30;65043;48.392;-4.472;2023-08-12T03:58:03;20.60;76.96
76239;SHT30;65043;48.392;-4.472;2023-08-12T04:00:31;20.57;76.92
76239;SHT30;65043;48.392;-4.472;2023-08-12T04:03:05;20.57;76.93
76239;SHT30;65043;48.392;-4.472;2023-08-12T04:05:33;20.60;76.80
76239;SHT30;65043;48.392;-4.472;2023-08-12T04:07:59;20.60;76.79
76239;SHT30;65043;48.392;-4.472;2023-08-12T04:10:24;20.57;76.88
76239;SHT30;65043;48.392;-4.472;2023-08-12T04:12:52;20.56;76.92
76239;SHT30;65043;48.392;-4.472;2023-08-12T04:15:37;20.56;76.85
76239;SHT30;65043;48.392;-4.472;2023-08-12T04:18:03;20.50;76.96
76239;SHT30;65043;48.392;-4.472;2023-08-12T04:20:29;20.48;76.96
76239;SHT30;65043;48.392;-4.472;2023-08-12T04:22:57;20.44;76.91
76239;SHT30;65043;48.392;-4.472;2023-08-12T04:25:25;20.47;76.81
76239;SHT30;65043;48.392;-4.472;2023-08-12T04:27:51;20.43;76.87
76239;SHT30;65043;48.392;-4.472;2023-08-12T04:30:17;20.43;76.85
76239;SHT30;65043;48.392;-4.472;2023-08-12T04:32:43;20.40;76.93
76239;SHT30;65043;48.392;-4.472;2023-08-12T04:35:11;20.36;76.79
76239;SHT30;65043;48.392;-4.472;2023-08-12T04:37:36;20.37;76.85
76239;SHT30;65043;48.392;-4.472;2023-08-12T04:40:02;20.41;76.59
76239;SHT30;65043;48.392;-4.472;2023-08-12T04:42:33;20.36;76.56
76239;SHT30;65043;48.392;-4.472;2023-08-12T04:44:58;20.39;76.44
76239;SHT30;65043;48.392;-4.472;2023-08-12T04:47:26;20.36;76.37
76239;SHT30;65043;48.392;-4.472;2023-08-12T04:49:54;20.36;76.51
76239;SHT30;65043;48.392;-4.472;2023-08-12T04:52:22;20.34;76.49
76239;SHT30;65043;48.392;-4.472;2023-08-12T04:54:53;20.39;76.38
76239;SHT30;65043;48.392;-4.472;2023-08-12T04:57:18;20.39;76.22
76239;SHT30;65043;48.392;-4.472;2023-08-12T04:59:49;20.36;76.22
76239;SHT30;65043;48.392;-4.472;2023-08-12T05:02:17;20.36;76.17
76239;SHT30;65043;48.392;-4.472;2023-08-12T05:04:48;20.33;76.06
76239;SHT30;65043;48.392;-4.472;2023-08-12T05:07:13;20.33;76.06
76239;SHT30;65043;48.392;-4.472;2023-08-12T05:09:39;20.32;76.01
76239;SHT30;65043;48.392;-4.472;2023-08-12T05:12:05;20.29;76.08
76239;SHT30;65043;48.392;-4.472;2023-08-12T05:14:31;20.27;76.23
76239;SHT30;65043;48.392;-4.472;2023-08-12T05:17:02;20.30;76.21
76239;SHT30;65043;48.392;-4.472;2023-08-12T05:19:27;20.29;76.10
76239;SHT30;65043;48.392;-4.472;2023-08-12T05:21:53;20.30;75.96
76239;SHT30;65043;48.392;-4.472;2023-08-12T05:24:18;20.32;75.87
76239;SHT30;65043;48.392;-4.472;2023-08-12T05:26:44;20.34;75.81
76239;SHT30;65043;48.392;-4.472;2023-08-12T05:29:12;20.33;75.81
76239;SHT30;65043;48.392;-4.472;2023-08-12T05:31:38;20.33;75.74
76239;SHT30;65043;48.392;-4.472;2023-08-12T05:34:04;20.30;75.75
76239;SHT30;65043;48.392;-4.472;2023-08-12T05:36:29;20.32;75.58
76239;SHT30;65043;48.392;-4.472;2023-08-12T05:38:58;20.29;75.61
76239;SHT30;65043;48.392;-4.472;2023-08-12T05:41:28;20.26;75.63
76239;SHT30;65043;48.392;-4.472;2023-08-12T05:43:56;20.23;75.84
76239;SHT30;65043;48.392;-4.472;2023-08-12T05:46:22;20.25;75.84
76239;SHT30;65043;48.392;-4.472;2023-08-12T05:48:47;20.25;75.81
76239;SHT30;65043;48.392;-4.472;2023-08-12T05:51:20;20.22;75.94
76239;SHT30;65043;48.392;-4.472;2023-08-12T05:53:46;20.20;76.10
76239;SHT30;65043;48.392;-4.472;2023-08-12T05:56:16;20.27;75.90
76239;SHT30;65043;48.392;-4.472;2023-08-12T05:58:42;20.29;75.82
76239;SHT30;65043;48.392;-4.472;2023-08-12T06:01:10;20.23;75.89
76239;SHT30;65043;48.392;-4.472;2023-08-12T06:03:37;20.26;75.76
76239;SHT30;65043;48.392;-4.472;2023-08-12T06:06:05;20.25;75.92
76239;SHT30;65043;48.392;-4.472;2023-08-12T06:08:36;20.25;76.08
76239;SHT30;65043;48.392;-4.472;2023-08-12T06:11:04;20.25;76.16
76239;SHT30;65043;48.392;-4.472;2023-08-12T06:13:29;20.27;76.08
76239;SHT30;65043;48.392;-4.472;2023-08-12T06:15:55;20.30;76.02
76239;SHT30;65043;48.392;-4.472;2023-08-12T06:18:23;20.29;75.93
76239;SHT30;65043;48.392;-4.472;2023-08-12T06:20:51;20.30;75.99
76239;SHT30;65043;48.392;-4.472;2023-08-12T06:23:18;20.29;75.95
76239;SHT30;65043;48.392;-4.472;2023-08-12T06:25:46;20.29;75.90
76239;SHT30;65043;48.392;-4.472;2023-08-12T06:28:12;20.37;75.81
76239;SHT30;65043;48.392;-4.472;2023-08-12T06:30:37;20.36;75.69
76239;SHT30;65043;48.392;-4.472;2023-08-12T06:33:10;20.36;75.64
76239;SHT30;65043;48.392;-4.472;2023-08-12T06:35:45;20.36;75.69
76239;SHT30;65043;48.392;-4.472;2023-08-12T06:38:13;20.34;75.72
76239;SHT30;65043;48.392;-4.472;2023-08-12T06:40:39;20.34;75.73
76239;SHT30;65043;48.392;-4.472;2023-08-12T06:43:07;20.33;75.69
76239;SHT30;65043;48.392;-4.472;2023-08-12T06:45:36;20.36;75.67
76239;SHT30;65043;48.392;-4.472;2023-08-12T06:48:05;20.36;75.67
76239;SHT30;65043;48.392;-4.472;2023-08-12T06:50:30;20.40;75.60
76239;SHT30;65043;48.392;-4.472;2023-08-12T06:52:58;20.34;75.65
76239;SHT30;65043;48.392;-4.472;2023-08-12T06:55:31;20.33;75.80
76239;SHT30;65043;48.392;-4.472;2023-08-12T06:57:56;20.32;75.81
76239;SHT30;65043;48.392;-4.472;2023-08-12T07:00:22;20.33;75.93
76239;SHT30;65043;48.392;-4.472;2023-08-12T07:02:50;20.32;75.97
76239;SHT30;65043;48.392;-4.472;2023-08-12T07:05:16;20.41;76.01
76239;SHT30;65043;48.392;-4.472;2023-08-12T07:07:41;20.41;75.86
76239;SHT30;65043;48.392;-4.472;2023-08-12T07:10:07;20.44;75.68
76239;SHT30;65043;48.392;-4.472;2023-08-12T07:12:33;20.43;75.52
76239;SHT30;65043;48.392;-4.472;2023-08-12T07:15:01;20.44;75.63
76239;SHT30;65043;48.392;-4.472;2023-08-12T07:17:26;20.47;75.60
76239;SHT30;65043;48.392;-4.472;2023-08-12T07:19:52;20.50;75.51
76239;SHT30;65043;48.392;-4.472;2023-08-12T07:22:20;20.54;75.15
76239;SHT30;65043;48.392;-4.472;2023-08-12T07:24:45;20.54;75.23
76239;SHT30;65043;48.392;-4.472;2023-08-12T07:27:18;20.58;75.14
76239;SHT30;65043;48.392;-4.472;2023-08-12T07:29:45;20.60;75.01
76239;SHT30;65043;48.392;-4.472;2023-08-12T07:32:13;20.60;75.14
76239;SHT30;65043;48.392;-4.472;2023-08-12T07:34:58;20.58;75.17
76239;SHT30;65043;48.392;-4.472;2023-08-12T07:37:34;20.61;74.97
76239;SHT30;65043;48.392;-4.472;2023-08-12T07:39:59;20.61;75.24
76239;SHT30;65043;48.392;-4.472;2023-08-12T07:42:26;20.60;75.27
76239;SHT30;65043;48.392;-4.472;2023-08-12T07:44:55;20.58;75.22
76239;SHT30;65043;48.392;-4.472;2023-08-12T07:47:25;20.56;75.29
76239;SHT30;65043;48.392;-4.472;2023-08-12T07:49:50;20.58;75.27
76239;SHT30;65043;48.392;-4.472;2023-08-12T07:52:21;20.57;75.17
76239;SHT30;65043;48.392;-4.472;2023-08-12T07:54:49;20.57;75.18
76239;SHT30;65043;48.392;-4.472;2023-08-12T07:57:19;20.58;75.17
76239;SHT30;65043;48.392;-4.472;2023-08-12T07:59:52;20.57;75.07
76239;SHT30;65043;48.392;-4.472;2023-08-12T08:02:32;20.58;75.10
76239;SHT30;65043;48.392;-4.472;2023-08-12T08:05:00;20.61;75.13
76239;SHT30;65043;48.392;-4.472;2023-08-12T08:07:25;20.65;74.86
76239;SHT30;65043;48.392;-4.472;2023-08-12T08:09:58;20.65;74.79
76239;SHT30;65043;48.392;-4.472;2023-08-12T08:12:27;20.67;74.74
76239;SHT30;65043;48.392;-4.472;2023-08-12T08:14:52;20.63;74.66
76239;SHT30;65043;48.392;-4.472;2023-08-12T08:17:20;20.65;74.70
76239;SHT30;65043;48.392;-4.472;2023-08-12T08:19:48;20.64;74.75
76239;SHT30;65043;48.392;-4.472;2023-08-12T08:22:21;20.67;74.59
76239;SHT30;65043;48.392;-4.472;2023-08-12T08:24:46;20.68;74.59
76239;SHT30;65043;48.392;-4.472;2023-08-12T08:27:12;20.70;74.56
76239;SHT30;65043;48.392;-4.472;2023-08-12T08:29:39;20.74;74.51
76239;SHT30;65043;48.392;-4.472;2023-08-12T08:32:10;20.74;74.63
76239;SHT30;65043;48.392;-4.472;2023-08-12T08:34:38;20.80;74.44
76239;SHT30;65043;48.392;-4.472;2023-08-12T08:37:08;20.84;74.52
76239;SHT30;65043;48.392;-4.472;2023-08-12T08:39:44;20.87;74.50
76239;SHT30;65043;48.392;-4.472;2023-08-12T08:42:12;20.91;74.43
76239;SHT30;65043;48.392;-4.472;2023-08-12T08:44:53;20.98;74.32
76239;SHT30;65043;48.392;-4.472;2023-08-12T08:47:26;21.01;74.35
76239;SHT30;65043;48.392;-4.472;2023-08-12T08:50:00;21.02;74.16
76239;SHT30;65043;48.392;-4.472;2023-08-12T08:52:31;21.08;73.94
76239;SHT30;65043;48.392;-4.472;2023-08-12T08:55:00;21.08;73.97
76239;SHT30;65043;48.392;-4.472;2023-08-12T08:57:28;21.06;73.74
76239;SHT30;65043;48.392;-4.472;2023-08-12T08:59:54;21.04;73.60
76239;SHT30;65043;48.392;-4.472;2023-08-12T09:02:20;21.06;73.72
76239;SHT30;65043;48.392;-4.472;2023-08-12T09:04:49;21.08;73.65
76239;SHT30;65043;48.392;-4.472;2023-08-12T09:07:18;21.04;73.64
76239;SHT30;65043;48.392;-4.472;2023-08-12T09:09:48;21.06;73.74
76239;SHT30;65043;48.392;-4.472;2023-08-12T09:12:18;21.05;73.63
76239;SHT30;65043;48.392;-4.472;2023-08-12T09:14:45;21.06;73.78
76239;SHT30;65043;48.392;-4.472;2023-08-12T09:20:10;21.12;73.79
76239;SHT30;65043;48.392;-4.472;2023-08-12T09:22:41;21.11;73.82
76239;SHT30;65043;48.392;-4.472;2023-08-12T09:25:28;21.12;73.96
76239;SHT30;65043;48.392;-4.472;2023-08-12T09:28:06;21.09;73.73
76239;SHT30;65043;48.392;-4.472;2023-08-12T09:30:33;21.01;73.97
76239;SHT30;65043;48.392;-4.472;2023-08-12T09:33:03;20.92;74.19
76239;SHT30;65043;48.392;-4.472;2023-08-12T09:35:44;20.85;74.53
76239;SHT30;65043;48.392;-4.472;2023-08-12T09:38:17;20.88;74.56
76239;SHT30;65043;48.392;-4.472;2023-08-12T09:40:46;20.90;74.58
76239;SHT30;65043;48.392;-4.472;2023-08-12T09:43:15;20.88;74.48
76239;SHT30;65043;48.392;-4.472;2023-08-12T09:45:48;20.91;74.57
76239;SHT30;65043;48.392;-4.472;2023-08-12T09:48:16;20.84;74.53
76239;SHT30;65043;48.392;-4.472;2023-08-12T09:50:45;20.84;74.70
76239;SHT30;65043;48.392;-4.472;2023-08-12T09:53:12;20.84;74.77
76239;SHT30;65043;48.392;-4.472;2023-08-12T09:55:38;20.88;74.74
76239;SHT30;65043;48.392;-4.472;2023-08-12T09:58:06;20.91;74.67
76239;SHT30;65043;48.392;-4.472;2023-08-12T10:00:35;20.95;74.37
76239;SHT30;65043;48.392;-4.472;2023-08-12T10:03:10;21.02;74.25
76239;SHT30;65043;48.392;-4.472;2023-08-12T10:05:47;21.05;73.85
76239;SHT30;65043;48.392;-4.472;2023-08-12T10:08:13;21.05;73.73
76239;SHT30;65043;48.392;-4.472;2023-08-12T10:10:42;21.09;73.90
76239;SHT30;65043;48.392;-4.472;2023-08-12T10:13:23;21.08;73.53
76239;SHT30;65043;48.392;-4.472;2023-08-12T10:15:51;21.08;73.72
76239;SHT30;65043;48.392;-4.472;2023-08-12T10:18:18;21.09;73.90
76239;SHT30;65043;48.392;-4.472;2023-08-12T10:20:52;21.12;73.94
76239;SHT30;65043;48.392;-4.472;2023-08-12T10:23:25;21.19;73.85
76239;SHT30;65043;48.392;-4.472;2023-08-12T10:25:54;21.19;73.94
76239;SHT30;65043;48.392;-4.472;2023-08-12T10:28:22;21.19;74.05
76239;SHT30;65043;48.392;-4.472;2023-08-12T10:30:56;21.19;74.18
76239;SHT30;65043;48.392;-4.472;2023-08-12T10:33:39;21.26;74.05
76239;SHT30;65043;48.392;-4.472;2023-08-12T10:36:07;21.25;74.18
76239;SHT30;65043;48.392;-4.472;2023-08-12T10:38:36;21.25;74.31
76239;SHT30;65043;48.392;-4.472;2023-08-12T10:41:24;21.31;74.36
76239;SHT30;65043;48.392;-4.472;2023-08-12T10:44:01;21.29;74.04
76239;SHT30;65043;48.392;-4.472;2023-08-12T10:46:38;21.25;73.98
76239;SHT30;65043;48.392;-4.472;2023-08-12T10:49:10;21.24;73.91
76239;SHT30;65043;48.392;-4.472;2023-08-12T10:51:51;21.24;73.95
76239;SHT30;65043;48.392;-4.472;2023-08-12T10:54:28;21.25;73.91
76239;SHT30;65043;48.392;-4.472;2023-08-12T10:59:57;21.26;73.81
76239;SHT30;65043;48.392;-4.472;2023-08-12T11:02:36;21.36;73.90
76239;SHT30;65043;48.392;-4.472;2023-08-12T11:05:35;21.41;73.44
76239;SHT30;65043;48.392;-4.472;2023-08-12T11:08:05;21.38;72.95
76239;SHT30;65043;48.392;-4.472;2023-08-12T11:10:41;21.41;73.29
76239;SHT30;65043;48.392;-4.472;2023-08-12T11:13:11;21.43;73.14
76239;SHT30;65043;48.392;-4.472;2023-08-12T11:15:47;21.46;72.96
76239;SHT30;65043;48.392;-4.472;2023-08-12T11:18:20;21.54;72.97
76239;SHT30;65043;48.392;-4.472;2023-08-12T11:20:54;21.62;72.36
76239;SHT30;65043;48.392;-4.472;2023-08-12T11:23:33;21.57;72.09
76239;SHT30;65043;48.392;-4.472;2023-08-12T11:26:02;21.54;72.28
76239;SHT30;65043;48.392;-4.472;2023-08-12T11:28:28;21.54;72.10
76239;SHT30;65043;48.392;-4.472;2023-08-12T11:31:07;21.53;71.87
76239;SHT30;65043;48.392;-4.472;2023-08-12T11:37:18;21.56;70.90
76239;SHT30;65043;48.392;-4.472;2023-08-12T11:40:02;21.59;70.74
76239;SHT30;65043;48.392;-4.472;2023-08-12T11:42:30;21.64;70.55
76239;SHT30;65043;48.392;-4.472;2023-08-12T11:45:04;21.64;70.42
76239;SHT30;65043;48.392;-4.472;2023-08-12T11:47:50;21.74;70.67
76239;SHT30;65043;48.392;-4.472;2023-08-12T11:50:40;21.86;70.48
76239;SHT30;65043;48.392;-4.472;2023-08-12T11:53:26;21.87;70.18
76239;SHT30;65043;48.392;-4.472;2023-08-12T11:55:59;21.89;70.36
76239;SHT30;65043;48.392;-4.472;2023-08-12T11:58:36;21.89;70.66
76239;SHT30;65043;48.392;-4.472;2023-08-12T12:01:31;21.97;70.61
76239;SHT30;65043;48.392;-4.472;2023-08-12T12:04:05;22.04;70.25
76239;SHT30;65043;48.392;-4.472;2023-08-12T12:10:05;22.13;70.40
76239;SHT30;65043;48.392;-4.472;2023-08-12T12:12:55;22.17;70.40
76239;SHT30;65043;48.392;-4.472;2023-08-12T12:18:35;22.18;70.56
76239;SHT30;65043;48.392;-4.472;2023-08-12T12:21:00;22.18;70.72
76239;SHT30;65043;48.392;-4.472;2023-08-12T12:23:29;22.20;70.50
76239;SHT30;65043;48.392;-4.472;2023-08-12T12:26:11;22.27;70.82
76239;SHT30;65043;48.392;-4.472;2023-08-12T12:28:47;22.27;70.26
76239;SHT30;65043;48.392;-4.472;2023-08-12T12:31:12;22.30;70.48
76239;SHT30;65043;48.392;-4.472;2023-08-12T12:33:45;22.25;70.26
76239;SHT30;65043;48.392;-4.472;2023-08-12T12:36:50;22.20;70.92
76239;SHT30;65043;48.392;-4.472;2023-08-12T12:39:20;22.21;70.92
76239;SHT30;65043;48.392;-4.472;2023-08-12T12:41:50;22.22;70.51
76239;SHT30;65043;48.392;-4.472;2023-08-12T12:44:20;22.25;70.55
76239;SHT30;65043;48.392;-4.472;2023-08-12T12:46:56;22.17;70.47
76239;SHT30;65043;48.392;-4.472;2023-08-12T12:49:24;22.13;70.61
76239;SHT30;65043;48.392;-4.472;2023-08-12T12:51:49;22.05;70.60
76239;SHT30;65043;48.392;-4.472;2023-08-12T12:54:21;22.08;70.92
76239;SHT30;65043;48.392;-4.472;2023-08-12T12:57:18;22.11;70.62
76239;SHT30;65043;48.392;-4.472;2023-08-12T12:59:46;22.18;70.58
76239;SHT30;65043;48.392;-4.472;2023-08-12T13:02:37;22.22;70.58
76239;SHT30;65043;48.392;-4.472;2023-08-12T13:05:06;22.32;70.38
76239;SHT30;65043;48.392;-4.472;2023-08-12T13:07:51;22.37;69.92
76239;SHT30;65043;48.392;-4.472;2023-08-12T13:10:25;22.38;70.03
76239;SHT30;65043;48.392;-4.472;2023-08-12T13:13:06;22.41;70.02
76239;SHT30;65043;48.392;-4.472;2023-08-12T13:15:50;22.38;69.78
76239;SHT30;65043;48.392;-4.472;2023-08-12T13:18:23;22.34;69.66
76239;SHT30;65043;48.392;-4.472;2023-08-12T13:23:24;22.25;69.80
76239;SHT30;65043;48.392;-4.472;2023-08-12T13:26:00;22.27;69.91
76239;SHT30;65043;48.392;-4.472;2023-08-12T13:28:38;22.27;69.74
76239;SHT30;65043;48.392;-4.472;2023-08-12T13:31:22;22.30;69.42
76239;SHT30;65043;48.392;-4.472;2023-08-12T13:33:50;22.24;69.61
76239;SHT30;65043;48.392;-4.472;2023-08-12T13:36:15;22.21;69.81
76239;SHT30;65043;48.392;-4.472;2023-08-12T13:38:50;22.24;69.67
76239;SHT30;65043;48.392;-4.472;2023-08-12T13:41:36;22.30;69.69
76239;SHT30;65043;48.392;-4.472;2023-08-12T13:44:04;22.40;69.59
76239;SHT30;65043;48.392;-4.472;2023-08-12T13:46:55;22.48;69.13
76239;SHT30;65043;48.392;-4.472;2023-08-12T13:49:33;22.58;68.85
76239;SHT30;65043;48.392;-4.472;2023-08-12T13:52:06;22.65;68.87
76239;SHT30;65043;48.392;-4.472;2023-08-12T13:54:34;22.71;68.46
76239;SHT30;65043;48.392;-4.472;2023-08-12T13:57:12;22.69;68.19
76239;SHT30;65043;48.392;-4.472;2023-08-12T13:59:40;22.68;68.45
76239;SHT30;65043;48.392;-4.472;2023-08-12T14:02:11;22.68;68.36
76239;SHT30;65043;48.392;-4.472;2023-08-12T14:04:46;22.71;68.43
76239;SHT30;65043;48.392;-4.472;2023-08-12T14:07:20;22.75;67.94
76239;SHT30;65043;48.392;-4.472;2023-08-12T14:09:55;22.83;68.10
76239;SHT30;65043;48.392;-4.472;2023-08-12T14:12:20;22.88;67.11
76239;SHT30;65043;48.392;-4.472;2023-08-12T14:14:55;22.89;67.02
76239;SHT30;65043;48.392;-4.472;2023-08-12T14:17:43;22.92;66.68
76239;SHT30;65043;48.392;-4.472;2023-08-12T14:20:17;22.96;67.00
76239;SHT30;65043;48.392;-4.472;2023-08-12T14:22:45;22.99;66.90
76239;SHT30;65043;48.392;-4.472;2023-08-12T14:25:20;22.96;66.59
76239;SHT30;65043;48.392;-4.472;2023-08-12T14:27:48;22.93;66.53
76239;SHT30;65043;48.392;-4.472;2023-08-12T14:30:29;22.89;66.53
76239;SHT30;65043;48.392;-4.472;2023-08-12T14:33:10;22.86;66.37
76239;SHT30;65043;48.392;-4.472;2023-08-12T14:35:41;22.82;66.66
76239;SHT30;65043;48.392;-4.472;2023-08-12T14:38:21;22.85;66.85
76239;SHT30;65043;48.392;-4.472;2023-08-12T14:43:34;22.81;67.00
76239;SHT30;65043;48.392;-4.472;2023-08-12T14:46:07;22.81;67.02
76239;SHT30;65043;48.392;-4.472;2023-08-12T14:48:55;22.76;66.97
76239;SHT30;65043;48.392;-4.472;2023-08-12T14:51:22;22.86;66.26
76239;SHT30;65043;48.392;-4.472;2023-08-12T14:54:00;22.89;66.18
76239;SHT30;65043;48.392;-4.472;2023-08-12T14:56:28;22.92;65.85
76239;SHT30;65043;48.392;-4.472;2023-08-12T14:58:53;22.93;65.96
76239;SHT30;65043;48.392;-4.472;2023-08-12T15:01:21;22.93;66.28
76239;SHT30;65043;48.392;-4.472;2023-08-12T15:03:49;22.93;66.08
76239;SHT30;65043;48.392;-4.472;2023-08-12T15:06:27;22.85;66.17
76239;SHT30;65043;48.392;-4.472;2023-08-12T15:08:55;22.81;66.25
76239;SHT30;65043;48.392;-4.472;2023-08-12T15:11:23;22.77;66.37
76239;SHT30;65043;48.392;-4.472;2023-08-12T15:13:51;22.76;66.16
76239;SHT30;65043;48.392;-4.472;2023-08-12T15:16:21;22.77;66.29
76239;SHT30;65043;48.392;-4.472;2023-08-12T15:18:46;22.83;66.34
76239;SHT30;65043;48.392;-4.472;2023-08-12T15:21:14;22.85;66.17
76239;SHT30;65043;48.392;-4.472;2023-08-12T15:23:44;22.86;66.10
76239;SHT30;65043;48.392;-4.472;2023-08-12T15:26:12;22.81;66.03
76239;SHT30;65043;48.392;-4.472;2023-08-12T15:28:41;22.82;66.47
76239;SHT30;65043;48.392;-4.472;2023-08-12T15:31:10;22.82;66.35
76239;SHT30;65043;48.392;-4.472;2023-08-12T15:33:39;22.77;66.47
76239;SHT30;65043;48.392;-4.472;2023-08-12T15:36:04;22.83;66.58
76239;SHT30;65043;48.392;-4.472;2023-08-12T15:38:37;22.88;66.27
76239;SHT30;65043;48.392;-4.472;2023-08-12T15:41:15;22.83;66.28
76239;SHT30;65043;48.392;-4.472;2023-08-12T15:43:59;22.88;66.67
76239;SHT30;65043;48.392;-4.472;2023-08-12T15:46:34;22.95;66.61
76239;SHT30;65043;48.392;-4.472;2023-08-12T15:49:05;22.90;66.36
76239;SHT30;65043;48.392;-4.472;2023-08-12T15:51:40;22.82;66.52
76239;SHT30;65043;48.392;-4.472;2023-08-12T15:54:13;22.77;66.79
76239;SHT30;65043;48.392;-4.472;2023-08-12T15:56:46;22.75;67.02
76239;SHT30;65043;48.392;-4.472;2023-08-12T15:59:14;22.62;67.32